sensor_id;sensor_type;location;lat;lon;timestamp;pressure;altitude;pressure_sealevel;temperature;humidity
2711;BME280;20721;47.402;8.550;2023-04-04T00:00:13;96466;;;3.68;45.99
2711;BME280;20721;47.402;8.550;2023-04-04T00:01:13;96467;;;3.62;46.08
2711;BME280;20721;47.402;8.550;2023-04-04T00:02:13;96464;;;3.63;46.20
2711;BME280;20721;47.402;8.550;2023-04-04T00:03:13;96461;;;3.67;46.16
2711;BME280;20721;47.402;8.550;2023-04-04T00:04:13;96465;;;3.71;45.97
2711;BME280;20721;47.402;8.550;2023-04-04T00:05:13;96462;;;3.74;45.99
2711;BME280;20721;47.402;8.550;2023-04-04T00:06:13;96463;;;3.72;46.03
2711;BME280;20721;47.402;8.550;2023-04-04T00:07:13;96463;;;3.62;46.08
2711;BME280;20721;47.402;8.550;2023-04-04T00:08:13;96458;;;3.50;46.45
2711;BME280;20721;47.402;8.550;2023-04-04T00:10:13;96459;;;3.41;46.51
2711;BME280;20721;47.402;8.550;2023-04-04T00:11:13;96459;;;3.35;46.92
2711;BME280;20721;47.402;8.550;2023-04-04T00:12:13;96454;;;3.24;47.15
2711;BME280;20721;47.402;8.550;2023-04-04T00:14:13;96455;;;3.31;47.15
2711;BME280;20721;47.402;8.550;2023-04-04T00:15:13;96453;;;3.37;46.95
2711;BME280;20721;47.402;8.550;2023-04-04T00:16:13;96451;;;3.41;46.90
2711;BME280;20721;47.402;8.550;2023-04-04T00:17:13;96451;;;3.42;46.60
2711;BME280;20721;47.402;8.550;2023-04-04T00:18:13;96448;;;3.38;46.63
2711;BME280;20721;47.402;8.550;2023-04-04T00:19:16;96452;;;3.44;46.59
2711;BME280;20721;47.402;8.550;2023-04-04T00:20:13;96451;;;3.45;46.52
2711;BME280;20721;47.402;8.550;2023-04-04T00:21:13;96452;;;3.35;46.50
2711;BME280;20721;47.402;8.550;2023-04-04T00:22:13;96449;;;3.30;46.62
2711;BME280;20721;47.402;8.550;2023-04-04T00:23:13;96449;;;3.29;46.80
2711;BME280;20721;47.402;8.550;2023-04-04T00:24:13;96442;;;3.32;47.00
2711;BME280;20721;47.402;8.550;2023-04-04T00:26:13;96443;;;3.25;46.86
2711;BME280;20721;47.402;8.550;2023-04-04T00:27:13;96446;;;3.18;47.04
2711;BME280;20721;47.402;8.550;2023-04-04T00:28:13;96453;;;3.15;47.34
2711;BME280;20721;47.402;8.550;2023-04-04T00:29:13;96446;;;3.14;47.10
2711;BME280;20721;47.402;8.550;2023-04-04T00:30:13;96446;;;2.91;47.22
2711;BME280;20721;47.402;8.550;2023-04-04T00:31:13;96450;;;2.71;47.68
2711;BME280;20721;47.402;8.550;2023-04-04T00:32:13;96454;;;2.68;47.94
2711;BME280;20721;47.402;8.550;2023-04-04T00:33:13;96452;;;2.59;48.12
2711;BME280;20721;47.402;8.550;2023-04-04T00:34:13;96452;;;2.56;48.38
2711;BME280;20721;47.402;8.550;2023-04-04T00:35:13;96452;;;2.60;48.44
2711;BME280;20721;47.402;8.550;2023-04-04T00:36:13;96453;;;2.62;48.36
2711;BME280;20721;47.402;8.550;2023-04-04T00:37:13;96454;;;2.71;48.25
2711;BME280;20721;47.402;8.550;2023-04-04T00:38:13;96451;;;2.75;48.17
2711;BME280;20721;47.402;8.550;2023-04-04T00:39:13;96450;;;2.74;48.08
2711;BME280;20721;47.402;8.550;2023-04-04T00:40:13;96450;;;2.83;47.98
2711;BME280;20721;47.402;8.550;2023-04-04T00:41:13;96449;;;2.88;47.94
2711;BME280;20721;47.402;8.550;2023-04-04T00:42:13;96450;;;2.92;47.80
2711;BME280;20721;47.402;8.550;2023-04-04T00:44:13;96452;;;2.88;47.92
2711;BME280;20721;47.402;8.550;2023-04-04T00:45:13;96449;;;2.82;47.94
2711;BME280;20721;47.402;8.550;2023-04-04T00:46:14;96448;;;2.78;47.98
2711;BME280;20721;47.402;8.550;2023-04-04T00:47:13;96450;;;2.63;48.15
2711;BME280;20721;47.402;8.550;2023-04-04T00:48:13;96448;;;2.65;48.28
2711;BME280;20721;47.402;8.550;2023-04-04T00:49:13;96451;;;2.70;48.15
2711;BME280;20721;47.402;8.550;2023-04-04T00:50:13;96451;;;2.71;48.25
2711;BME280;20721;47.402;8.550;2023-04-04T00:51:13;96442;;;2.79;48.27
2711;BME280;20721;47.402;8.550;2023-04-04T00:52:13;96447;;;2.86;48.14
2711;BME280;20721;47.402;8.550;2023-04-04T00:53:13;96448;;;2.93;48.02
2711;BME280;20721;47.402;8.550;2023-04-04T00:54:13;96453;;;3.01;47.87
2711;BME280;20721;47.402;8.550;2023-04-04T00:55:13;96451;;;3.08;47.73
2711;BME280;20721;47.402;8.550;2023-04-04T00:56:13;96447;;;3.03;47.67
2711;BME280;20721;47.402;8.550;2023-04-04T00:57:13;96452;;;3.06;47.78
2711;BME280;20721;47.402;8.550;2023-04-04T00:58:13;96447;;;3.10;47.71
2711;BME280;20721;47.402;8.550;2023-04-04T00:59:14;96443;;;3.07;47.25
2711;BME280;20721;47.402;8.550;2023-04-04T01:00:14;96454;;;2.93;47.62
2711;BME280;20721;47.402;8.550;2023-04-04T01:01:13;96452;;;2.80;47.83
2711;BME280;20721;47.402;8.550;2023-04-04T01:02:13;96450;;;2.77;48.06
2711;BME280;20721;47.402;8.550;2023-04-04T01:03:13;96448;;;2.68;48.29
2711;BME280;20721;47.402;8.550;2023-04-04T01:04:14;96453;;;2.63;48.47
2711;BME280;20721;47.402;8.550;2023-04-04T01:05:13;96453;;;2.62;48.56
2711;BME280;20721;47.402;8.550;2023-04-04T01:06:13;96456;;;2.70;48.53
2711;BME280;20721;47.402;8.550;2023-04-04T01:07:13;96456;;;2.75;48.37
2711;BME280;20721;47.402;8.550;2023-04-04T01:08:15;96459;;;2.59;48.57
2711;BME280;20721;47.402;8.550;2023-04-04T01:10:13;96453;;;2.58;48.52
2711;BME280;20721;47.402;8.550;2023-04-04T01:11:13;96453;;;2.61;48.58
2711;BME280;20721;47.402;8.550;2023-04-04T01:12:13;96452;;;2.59;48.63
2711;BME280;20721;47.402;8.550;2023-04-04T01:13:13;96449;;;2.48;48.74
2711;BME280;20721;47.402;8.550;2023-04-04T01:14:13;96456;;;2.50;48.90
2711;BME280;20721;47.402;8.550;2023-04-04T01:15:13;96450;;;2.30;49.10
2711;BME280;20721;47.402;8.550;2023-04-04T01:16:13;96446;;;2.21;49.45
2711;BME280;20721;47.402;8.550;2023-04-04T01:17:13;96451;;;2.26;49.49
2711;BME280;20721;47.402;8.550;2023-04-04T01:18:14;96451;;;2.25;49.38
2711;BME280;20721;47.402;8.550;2023-04-04T01:19:23;96455;;;2.18;49.58
2711;BME280;20721;47.402;8.550;2023-04-04T01:20:14;96449;;;2.17;49.68
2711;BME280;20721;47.402;8.550;2023-04-04T01:21:15;96449;;;2.22;49.62
2711;BME280;20721;47.402;8.550;2023-04-04T01:22:13;96448;;;2.31;49.43
2711;BME280;20721;47.402;8.550;2023-04-04T01:23:13;96446;;;2.35;49.33
2711;BME280;20721;47.402;8.550;2023-04-04T01:24:15;96449;;;2.44;49.21
2711;BME280;20721;47.402;8.550;2023-04-04T01:25:13;96450;;;2.54;48.91
2711;BME280;20721;47.402;8.550;2023-04-04T01:26:13;96447;;;2.37;48.96
2711;BME280;20721;47.402;8.550;2023-04-04T01:27:13;96446;;;2.30;49.36
2711;BME280;20721;47.402;8.550;2023-04-04T01:28:13;96440;;;2.33;49.34
2711;BME280;20721;47.402;8.550;2023-04-04T01:29:13;96439;;;2.31;49.29
2711;BME280;20721;47.402;8.550;2023-04-04T01:30:13;96444;;;2.20;49.50
2711;BME280;20721;47.402;8.550;2023-04-04T01:31:13;96435;;;2.08;49.81
2711;BME280;20721;47.402;8.550;2023-04-04T01:32:15;96439;;;2.12;49.86
2711;BME280;20721;47.402;8.550;2023-04-04T01:33:30;96437;;;2.22;49.75
2711;BME280;20721;47.402;8.550;2023-04-04T01:34:18;96435;;;2.19;49.76
2711;BME280;20721;47.402;8.550;2023-04-04T01:36:17;96428;;;2.18;50.01
2711;BME280;20721;47.402;8.550;2023-04-04T01:38:32;96431;;;2.31;49.72
2711;BME280;20721;47.402;8.550;2023-04-04T01:39:14;96427;;;2.29;49.66
2711;BME280;20721;47.402;8.550;2023-04-04T01:40:16;96433;;;2.07;49.95
2711;BME280;20721;47.402;8.550;2023-04-04T01:41:13;96436;;;1.96;50.29
2711;BME280;20721;47.402;8.550;2023-04-04T01:42:14;96429;;;1.85;50.66
2711;BME280;20721;47.402;8.550;2023-04-04T01:43:13;96436;;;1.76;50.87
2711;BME280;20721;47.402;8.550;2023-04-04T01:44:16;96435;;;1.82;50.96
2711;BME280;20721;47.402;8.550;2023-04-04T01:45:13;96436;;;1.92;50.66
2711;BME280;20721;47.402;8.550;2023-04-04T01:46:15;96434;;;1.79;50.97
2711;BME280;20721;47.402;8.550;2023-04-04T01:48:15;96434;;;1.75;51.33
2711;BME280;20721;47.402;8.550;2023-04-04T01:50:13;96434;;;1.81;51.17
2711;BME280;20721;47.402;8.550;2023-04-04T01:51:13;96431;;;1.86;51.13
2711;BME280;20721;47.402;8.550;2023-04-04T01:52:13;96434;;;2.00;50.86
2711;BME280;20721;47.402;8.550;2023-04-04T01:53:13;96441;;;2.03;50.73
2711;BME280;20721;47.402;8.550;2023-04-04T01:54:13;96435;;;2.01;50.76
2711;BME280;20721;47.402;8.550;2023-04-04T01:55:13;96440;;;1.85;50.84
2711;BME280;20721;47.402;8.550;2023-04-04T01:56:13;96435;;;1.80;50.98
2711;BME280;20721;47.402;8.550;2023-04-04T01:57:14;96432;;;1.82;50.99
2711;BME280;20721;47.402;8.550;2023-04-04T01:58:13;96437;;;1.73;51.12
2711;BME280;20721;47.402;8.550;2023-04-04T01:59:13;96432;;;1.61;51.58
2711;BME280;20721;47.402;8.550;2023-04-04T02:00:14;96432;;;1.66;51.69
2711;BME280;20721;47.402;8.550;2023-04-04T02:01:13;96434;;;1.80;51.40
2711;BME280;20721;47.402;8.550;2023-04-04T02:02:13;96434;;;1.87;51.18
2711;BME280;20721;47.402;8.550;2023-04-04T02:03:13;96438;;;1.81;51.22
2711;BME280;20721;47.402;8.550;2023-04-04T02:04:14;96440;;;1.75;51.34
2711;BME280;20721;47.402;8.550;2023-04-04T02:05:13;96433;;;1.76;51.37
2711;BME280;20721;47.402;8.550;2023-04-04T02:06:13;96439;;;1.80;51.19
2711;BME280;20721;47.402;8.550;2023-04-04T02:07:13;96440;;;1.96;50.94
2711;BME280;20721;47.402;8.550;2023-04-04T02:08:14;96437;;;2.05;50.70
2711;BME280;20721;47.402;8.550;2023-04-04T02:09:13;96440;;;2.12;50.47
2711;BME280;20721;47.402;8.550;2023-04-04T02:10:13;96443;;;2.11;50.49
2711;BME280;20721;47.402;8.550;2023-04-04T02:11:13;96446;;;1.96;50.53
2711;BME280;20721;47.402;8.550;2023-04-04T02:12:13;96434;;;1.88;50.69
2711;BME280;20721;47.402;8.550;2023-04-04T02:13:13;96435;;;1.76;50.99
2711;BME280;20721;47.402;8.550;2023-04-04T02:14:13;96437;;;1.71;51.12
2711;BME280;20721;47.402;8.550;2023-04-04T02:15:14;96442;;;1.63;51.27
2711;BME280;20721;47.402;8.550;2023-04-04T02:16:14;96438;;;1.37;51.85
2711;BME280;20721;47.402;8.550;2023-04-04T02:17:13;96436;;;1.25;52.09
2711;BME280;20721;47.402;8.550;2023-04-04T02:18:13;96438;;;1.22;52.24
2711;BME280;20721;47.402;8.550;2023-04-04T02:19:13;96438;;;1.13;52.57
2711;BME280;20721;47.402;8.550;2023-04-04T02:20:14;96432;;;1.16;52.59
2711;BME280;20721;47.402;8.550;2023-04-04T02:21:13;96430;;;1.19;52.66
2711;BME280;20721;47.402;8.550;2023-04-04T02:22:13;96436;;;1.29;52.46
2711;BME280;20721;47.402;8.550;2023-04-04T02:23:13;96434;;;1.38;52.19
2711;BME280;20721;47.402;8.550;2023-04-04T02:24:13;96432;;;1.48;51.96
2711;BME280;20721;47.402;8.550;2023-04-04T02:25:13;96429;;;1.45;51.71
2711;BME280;20721;47.402;8.550;2023-04-04T02:26:13;96440;;;1.35;51.88
2711;BME280;20721;47.402;8.550;2023-04-04T02:27:13;96432;;;1.29;52.08
2711;BME280;20721;47.402;8.550;2023-04-04T02:28:13;96432;;;1.35;52.06
2711;BME280;20721;47.402;8.550;2023-04-04T02:29:13;96439;;;1.46;51.86
2711;BME280;20721;47.402;8.550;2023-04-04T02:30:14;96435;;;1.49;51.87
2711;BME280;20721;47.402;8.550;2023-04-04T02:31:13;96434;;;1.56;51.69
2711;BME280;20721;47.402;8.550;2023-04-04T02:32:14;96433;;;1.60;51.47
2711;BME280;20721;47.402;8.550;2023-04-04T02:33:13;96436;;;1.63;51.27
2711;BME280;20721;47.402;8.550;2023-04-04T02:34:13;96436;;;1.52;51.49
2711;BME280;20721;47.402;8.550;2023-04-04T02:35:14;96435;;;1.53;51.62
2711;BME280;20721;47.402;8.550;2023-04-04T02:36:14;96435;;;1.62;51.47
2711;BME280;20721;47.402;8.550;2023-04-04T02:37:13;96434;;;1.53;51.46
2711;BME280;20721;47.402;8.550;2023-04-04T02:38:13;96434;;;1.50;51.61
2711;BME280;20721;47.402;8.550;2023-04-04T02:39:13;96439;;;1.47;51.56
2711;BME280;20721;47.402;8.550;2023-04-04T02:40:14;96435;;;1.46;51.71
2711;BME280;20721;47.402;8.550;2023-04-04T02:41:13;96425;;;1.54;51.58
2711;BME280;20721;47.402;8.550;2023-04-04T02:43:14;96426;;;1.56;51.50
2711;BME280;20721;47.402;8.550;2023-04-04T02:44:13;96427;;;1.64;51.35
2711;BME280;20721;47.402;8.550;2023-04-04T02:45:13;96428;;;1.70;51.29
2711;BME280;20721;47.402;8.550;2023-04-04T02:46:22;96429;;;1.82;51.04
2711;BME280;20721;47.402;8.550;2023-04-04T02:47:13;96420;;;1.93;50.97
2711;BME280;20721;47.402;8.550;2023-04-04T02:48:14;96421;;;1.95;50.37
2711;BME280;20721;47.402;8.550;2023-04-04T02:49:14;96423;;;1.85;50.65
2711;BME280;20721;47.402;8.550;2023-04-04T02:50:14;96429;;;1.79;50.83
2711;BME280;20721;47.402;8.550;2023-04-04T02:51:13;96427;;;1.73;50.91
2711;BME280;20721;47.402;8.550;2023-04-04T02:52:13;96422;;;1.65;51.12
2711;BME280;20721;47.402;8.550;2023-04-04T02:53:13;96424;;;1.67;51.20
2711;BME280;20721;47.402;8.550;2023-04-04T02:54:13;96421;;;1.71;51.14
2711;BME280;20721;47.402;8.550;2023-04-04T02:55:13;96421;;;1.70;51.01
2711;BME280;20721;47.402;8.550;2023-04-04T02:56:13;96418;;;1.65;51.04
2711;BME280;20721;47.402;8.550;2023-04-04T02:58:13;96423;;;1.64;51.05
2711;BME280;20721;47.402;8.550;2023-04-04T02:59:13;96423;;;1.70;51.11
2711;BME280;20721;47.402;8.550;2023-04-04T03:00:14;96425;;;1.76;50.94
2711;BME280;20721;47.402;8.550;2023-04-04T03:01:14;96420;;;1.69;50.78
2711;BME280;20721;47.402;8.550;2023-04-04T03:02:13;96422;;;1.68;50.98
2711;BME280;20721;47.402;8.550;2023-04-04T03:03:14;96423;;;1.77;50.93
2711;BME280;20721;47.402;8.550;2023-04-04T03:04:14;96423;;;1.78;50.89
2711;BME280;20721;47.402;8.550;2023-04-04T03:05:13;96427;;;1.79;50.95
2711;BME280;20721;47.402;8.550;2023-04-04T03:06:13;96423;;;1.78;50.86
2711;BME280;20721;47.402;8.550;2023-04-04T03:07:14;96425;;;1.69;51.21
2711;BME280;20721;47.402;8.550;2023-04-04T03:08:14;96422;;;1.60;51.08
2711;BME280;20721;47.402;8.550;2023-04-04T03:10:13;96421;;;1.63;50.86
2711;BME280;20721;47.402;8.550;2023-04-04T03:11:17;96421;;;1.69;50.97
2711;BME280;20721;47.402;8.550;2023-04-04T03:13:13;96426;;;1.48;51.17
2711;BME280;20721;47.402;8.550;2023-04-04T03:14:13;96428;;;1.30;51.56
2711;BME280;20721;47.402;8.550;2023-04-04T03:15:15;96430;;;1.27;51.82
2711;BME280;20721;47.402;8.550;2023-04-04T03:16:15;96422;;;1.38;51.76
2711;BME280;20721;47.402;8.550;2023-04-04T03:17:14;96422;;;1.48;51.62
2711;BME280;20721;47.402;8.550;2023-04-04T03:18:14;96421;;;1.56;51.36
2711;BME280;20721;47.402;8.550;2023-04-04T03:19:14;96419;;;1.64;51.39
2711;BME280;20721;47.402;8.550;2023-04-04T03:20:14;96423;;;1.75;50.98
2711;BME280;20721;47.402;8.550;2023-04-04T03:21:14;96422;;;1.84;50.71
2711;BME280;20721;47.402;8.550;2023-04-04T03:22:13;96414;;;1.87;50.59
2711;BME280;20721;47.402;8.550;2023-04-04T03:23:14;96418;;;1.90;50.47
2711;BME280;20721;47.402;8.550;2023-04-04T03:24:13;96421;;;1.94;50.27
2711;BME280;20721;47.402;8.550;2023-04-04T03:25:14;96418;;;1.92;50.35
2711;BME280;20721;47.402;8.550;2023-04-04T03:26:14;96419;;;1.91;50.27
2711;BME280;20721;47.402;8.550;2023-04-04T03:27:14;96420;;;1.94;50.30
2711;BME280;20721;47.402;8.550;2023-04-04T03:28:14;96422;;;1.99;50.29
2711;BME280;20721;47.402;8.550;2023-04-04T03:29:14;96423;;;2.05;50.13
2711;BME280;20721;47.402;8.550;2023-04-04T03:31:13;96420;;;2.06;50.11
2711;BME280;20721;47.402;8.550;2023-04-04T03:32:14;96425;;;2.11;50.12
2711;BME280;20721;47.402;8.550;2023-04-04T03:33:14;96423;;;2.12;50.03
2711;BME280;20721;47.402;8.550;2023-04-04T03:34:14;96422;;;2.07;50.02
2711;BME280;20721;47.402;8.550;2023-04-04T03:35:14;96420;;;1.94;49.94
2711;BME280;20721;47.402;8.550;2023-04-04T03:36:14;96420;;;1.87;50.06
2711;BME280;20721;47.402;8.550;2023-04-04T03:37:13;96421;;;1.75;50.36
2711;BME280;20721;47.402;8.550;2023-04-04T03:38:14;96422;;;1.72;50.40
2711;BME280;20721;47.402;8.550;2023-04-04T03:39:13;96417;;;1.66;50.51
2711;BME280;20721;47.402;8.550;2023-04-04T03:40:14;96422;;;1.68;50.68
2711;BME280;20721;47.402;8.550;2023-04-04T03:41:14;96420;;;1.58;50.82
2711;BME280;20721;47.402;8.550;2023-04-04T03:42:14;96417;;;1.60;51.00
2711;BME280;20721;47.402;8.550;2023-04-04T03:43:14;96416;;;1.69;50.85
2711;BME280;20721;47.402;8.550;2023-04-04T03:44:14;96419;;;1.73;50.51
2711;BME280;20721;47.402;8.550;2023-04-04T03:45:14;96415;;;1.76;50.55
2711;BME280;20721;47.402;8.550;2023-04-04T03:46:14;96416;;;1.84;50.46
2711;BME280;20721;47.402;8.550;2023-04-04T03:47:14;96418;;;1.91;50.26
2711;BME280;20721;47.402;8.550;2023-04-04T03:48:14;96413;;;1.90;50.16
2711;BME280;20721;47.402;8.550;2023-04-04T03:49:14;96416;;;1.93;50.19
2711;BME280;20721;47.402;8.550;2023-04-04T03:50:14;96415;;;1.97;49.98
2711;BME280;20721;47.402;8.550;2023-04-04T03:51:14;96416;;;1.98;49.48
2711;BME280;20721;47.402;8.550;2023-04-04T03:52:14;96411;;;1.93;49.77
2711;BME280;20721;47.402;8.550;2023-04-04T03:53:14;96416;;;1.90;49.88
2711;BME280;20721;47.402;8.550;2023-04-04T03:54:14;96420;;;1.78;50.07
2711;BME280;20721;47.402;8.550;2023-04-04T03:55:14;96424;;;1.63;50.29
2711;BME280;20721;47.402;8.550;2023-04-04T03:56:14;96423;;;1.55;50.53
2711;BME280;20721;47.402;8.550;2023-04-04T03:57:14;96423;;;1.38;50.82
2711;BME280;20721;47.402;8.550;2023-04-04T03:58:14;96424;;;1.29;51.18
2711;BME280;20721;47.402;8.550;2023-04-04T03:59:14;96428;;;1.30;51.35
2711;BME280;20721;47.402;8.550;2023-04-04T04:00:14;96424;;;1.34;51.44
2711;BME280;20721;47.402;8.550;2023-04-04T04:01:14;96424;;;1.44;51.33
2711;BME280;20721;47.402;8.550;2023-04-04T04:02:14;96421;;;1.55;51.08
2711;BME280;20721;47.402;8.550;2023-04-04T04:03:17;96420;;;1.47;50.96
2711;BME280;20721;47.402;8.550;2023-04-04T04:05:14;96431;;;1.43;50.99
2711;BME280;20721;47.402;8.550;2023-04-04T04:06:14;96424;;;1.45;51.14
2711;BME280;20721;47.402;8.550;2023-04-04T04:07:14;96429;;;1.49;51.13
2711;BME280;20721;47.402;8.550;2023-04-04T04:08:14;96429;;;1.55;51.03
2711;BME280;20721;47.402;8.550;2023-04-04T04:09:14;96428;;;1.59;50.97
2711;BME280;20721;47.402;8.550;2023-04-04T04:10:14;96429;;;1.65;50.93
2711;BME280;20721;47.402;8.550;2023-04-04T04:11:14;96430;;;1.69;50.77
2711;BME280;20721;47.402;8.550;2023-04-04T04:12:14;96428;;;1.70;50.60
2711;BME280;20721;47.402;8.550;2023-04-04T04:13:14;96429;;;1.68;50.79
2711;BME280;20721;47.402;8.550;2023-04-04T04:14:14;96435;;;1.64;50.70
2711;BME280;20721;47.402;8.550;2023-04-04T04:15:14;96429;;;1.57;50.80
2711;BME280;20721;47.402;8.550;2023-04-04T04:16:14;96433;;;1.60;50.89
2711;BME280;20721;47.402;8.550;2023-04-04T04:18:14;96434;;;1.57;50.92
2711;BME280;20721;47.402;8.550;2023-04-04T04:19:14;96437;;;1.42;51.19
2711;BME280;20721;47.402;8.550;2023-04-04T04:20:14;96434;;;1.23;51.55
2711;BME280;20721;47.402;8.550;2023-04-04T04:21:14;96435;;;1.21;51.67
2711;BME280;20721;47.402;8.550;2023-04-04T04:22:14;96440;;;1.26;51.80
2711;BME280;20721;47.402;8.550;2023-04-04T04:23:14;96437;;;1.16;51.62
2711;BME280;20721;47.402;8.550;2023-04-04T04:24:14;96437;;;1.10;51.83
2711;BME280;20721;47.402;8.550;2023-04-04T04:25:14;96439;;;1.03;52.01
2711;BME280;20721;47.402;8.550;2023-04-04T04:26:14;96433;;;1.08;52.03
2711;BME280;20721;47.402;8.550;2023-04-04T04:27:14;96437;;;1.11;51.89
2711;BME280;20721;47.402;8.550;2023-04-04T04:28:14;96438;;;1.03;52.01
2711;BME280;20721;47.402;8.550;2023-04-04T04:29:15;96440;;;1.02;52.15
2711;BME280;20721;47.402;8.550;2023-04-04T04:30:14;96435;;;1.01;52.20
2711;BME280;20721;47.402;8.550;2023-04-04T04:31:14;96440;;;1.04;52.18
2711;BME280;20721;47.402;8.550;2023-04-04T04:32:15;96439;;;1.14;52.01
2711;BME280;20721;47.402;8.550;2023-04-04T04:33:14;96437;;;1.18;51.85
2711;BME280;20721;47.402;8.550;2023-04-04T04:34:14;96439;;;1.25;51.72
2711;BME280;20721;47.402;8.550;2023-04-04T04:35:14;96440;;;1.26;51.50
2711;BME280;20721;47.402;8.550;2023-04-04T04:36:14;96439;;;1.31;51.58
2711;BME280;20721;47.402;8.550;2023-04-04T04:37:14;96444;;;1.40;51.51
2711;BME280;20721;47.402;8.550;2023-04-04T04:38:14;96439;;;1.49;51.36
2711;BME280;20721;47.402;8.550;2023-04-04T04:39:14;96436;;;1.55;51.18
2711;BME280;20721;47.402;8.550;2023-04-04T04:40:15;96437;;;1.60;51.17
2711;BME280;20721;47.402;8.550;2023-04-04T04:41:14;96433;;;1.63;51.10
2711;BME280;20721;47.402;8.550;2023-04-04T04:43:14;96439;;;1.56;50.97
2711;BME280;20721;47.402;8.550;2023-04-04T04:44:14;96446;;;1.47;51.18
2711;BME280;20721;47.402;8.550;2023-04-04T04:45:14;96444;;;1.52;51.18
2711;BME280;20721;47.402;8.550;2023-04-04T04:47:14;96441;;;1.56;51.13
2711;BME280;20721;47.402;8.550;2023-04-04T04:48:16;96444;;;1.62;51.09
2711;BME280;20721;47.402;8.550;2023-04-04T04:49:14;96443;;;1.63;50.95
2711;BME280;20721;47.402;8.550;2023-04-04T04:50:14;96443;;;1.60;50.84
2711;BME280;20721;47.402;8.550;2023-04-04T04:51:14;96442;;;1.55;50.75
2711;BME280;20721;47.402;8.550;2023-04-04T04:52:14;96450;;;1.50;50.93
2711;BME280;20721;47.402;8.550;2023-04-04T04:53:14;96457;;;1.34;51.25
2711;BME280;20721;47.402;8.550;2023-04-04T04:54:14;96454;;;1.23;51.32
2711;BME280;20721;47.402;8.550;2023-04-04T04:55:14;96453;;;1.24;51.49
2711;BME280;20721;47.402;8.550;2023-04-04T04:56:14;96455;;;1.27;51.56
2711;BME280;20721;47.402;8.550;2023-04-04T04:57:14;96453;;;1.33;51.53
2711;BME280;20721;47.402;8.550;2023-04-04T04:58:16;96456;;;1.37;51.37
2711;BME280;20721;47.402;8.550;2023-04-04T04:59:14;96452;;;1.44;51.37
2711;BME280;20721;47.402;8.550;2023-04-04T05:00:14;96457;;;1.50;51.30
2711;BME280;20721;47.402;8.550;2023-04-04T05:01:14;96452;;;1.44;51.32
2711;BME280;20721;47.402;8.550;2023-04-04T05:02:14;96452;;;1.41;50.99
2711;BME280;20721;47.402;8.550;2023-04-04T05:03:14;96451;;;1.26;51.54
2711;BME280;20721;47.402;8.550;2023-04-04T05:04:16;96454;;;1.20;51.68
2711;BME280;20721;47.402;8.550;2023-04-04T05:05:14;96458;;;1.22;51.77
2711;BME280;20721;47.402;8.550;2023-04-04T05:06:14;96454;;;1.29;51.68
2711;BME280;20721;47.402;8.550;2023-04-04T05:07:14;96454;;;1.23;51.56
2711;BME280;20721;47.402;8.550;2023-04-04T05:08:14;96459;;;1.11;51.86
2711;BME280;20721;47.402;8.550;2023-04-04T05:09:14;96458;;;1.12;52.06
2711;BME280;20721;47.402;8.550;2023-04-04T05:10:14;96456;;;1.04;52.00
2711;BME280;20721;47.402;8.550;2023-04-04T05:11:14;96456;;;1.02;52.20
2711;BME280;20721;47.402;8.550;2023-04-04T05:12:14;96458;;;1.07;52.25
2711;BME280;20721;47.402;8.550;2023-04-04T05:13:14;96458;;;1.16;52.20
2711;BME280;20721;47.402;8.550;2023-04-04T05:14:14;96459;;;1.25;51.88
2711;BME280;20721;47.402;8.550;2023-04-04T05:15:14;96465;;;1.32;51.74
2711;BME280;20721;47.402;8.550;2023-04-04T05:17:14;96459;;;1.13;51.77
2711;BME280;20721;47.402;8.550;2023-04-04T05:18:14;96461;;;1.03;51.92
2711;BME280;20721;47.402;8.550;2023-04-04T05:19:14;96462;;;1.02;52.22
2711;BME280;20721;47.402;8.550;2023-04-04T05:20:14;96464;;;1.06;52.28
2711;BME280;20721;47.402;8.550;2023-04-04T05:21:14;96459;;;1.12;52.25
2711;BME280;20721;47.402;8.550;2023-04-04T05:22:14;96461;;;1.23;51.99
2711;BME280;20721;47.402;8.550;2023-04-04T05:23:14;96459;;;1.33;51.82
2711;BME280;20721;47.402;8.550;2023-04-04T05:24:16;96465;;;1.22;51.83
2711;BME280;20721;47.402;8.550;2023-04-04T05:25:14;96467;;;1.19;52.25
2711;BME280;20721;47.402;8.550;2023-04-04T05:26:14;96465;;;1.26;52.08
2711;BME280;20721;47.402;8.550;2023-04-04T05:27:14;96467;;;1.25;51.94
2711;BME280;20721;47.402;8.550;2023-04-04T05:28:15;96465;;;1.18;52.05
2711;BME280;20721;47.402;8.550;2023-04-04T05:29:14;96468;;;1.23;52.01
2711;BME280;20721;47.402;8.550;2023-04-04T05:30:14;96465;;;1.29;51.83
2711;BME280;20721;47.402;8.550;2023-04-04T05:31:14;96476;;;1.32;51.59
2711;BME280;20721;47.402;8.550;2023-04-04T05:32:14;96465;;;1.10;52.03
2711;BME280;20721;47.402;8.550;2023-04-04T05:33:14;96466;;;1.00;52.27
2711;BME280;20721;47.402;8.550;2023-04-04T05:34:14;96470;;;0.98;52.46
2711;BME280;20721;47.402;8.550;2023-04-04T05:35:14;96471;;;0.97;52.61
2711;BME280;20721;47.402;8.550;2023-04-04T05:36:14;96471;;;1.01;52.66
2711;BME280;20721;47.402;8.550;2023-04-04T05:37:14;96468;;;1.07;52.47
2711;BME280;20721;47.402;8.550;2023-04-04T05:38:14;96473;;;1.02;52.59
2711;BME280;20721;47.402;8.550;2023-04-04T05:39:14;96471;;;0.97;52.70
2711;BME280;20721;47.402;8.550;2023-04-04T05:40:15;96468;;;0.85;52.99
2711;BME280;20721;47.402;8.550;2023-04-04T05:41:14;96477;;;0.82;53.10
2711;BME280;20721;47.402;8.550;2023-04-04T05:42:14;96474;;;0.83;53.13
2711;BME280;20721;47.402;8.550;2023-04-04T05:43:14;96473;;;0.86;53.14
2711;BME280;20721;47.402;8.550;2023-04-04T05:44:15;96471;;;0.97;52.91
2711;BME280;20721;47.402;8.550;2023-04-04T05:45:14;96475;;;1.08;52.67
2711;BME280;20721;47.402;8.550;2023-04-04T05:46:14;96476;;;1.23;52.33
2711;BME280;20721;47.402;8.550;2023-04-04T05:47:14;96470;;;1.34;52.34
2711;BME280;20721;47.402;8.550;2023-04-04T05:48:14;96476;;;1.52;52.05
2711;BME280;20721;47.402;8.550;2023-04-04T05:49:14;96476;;;1.63;51.60
2711;BME280;20721;47.402;8.550;2023-04-04T05:50:14;96476;;;1.77;51.31
2711;BME280;20721;47.402;8.550;2023-04-04T05:51:14;96473;;;1.88;50.98
2711;BME280;20721;47.402;8.550;2023-04-04T05:52:15;96473;;;2.01;50.75
2711;BME280;20721;47.402;8.550;2023-04-04T05:53:14;96472;;;2.14;50.75
2711;BME280;20721;47.402;8.550;2023-04-04T05:54:14;96474;;;2.16;50.23
2711;BME280;20721;47.402;8.550;2023-04-04T05:55:14;96475;;;2.24;50.08
2711;BME280;20721;47.402;8.550;2023-04-04T05:56:14;96475;;;2.35;49.83
2711;BME280;20721;47.402;8.550;2023-04-04T05:57:14;96470;;;2.46;49.57
2711;BME280;20721;47.402;8.550;2023-04-04T05:58:14;96476;;;2.61;49.24
2711;BME280;20721;47.402;8.550;2023-04-04T05:59:15;96475;;;2.73;49.20